»·PEaware :: N225ND KBUR-KLAS

N225ND :: KBUR-KLAS

FLIGHT INFORMATION

Flight Status: Arrived
Operator: Privately registered:
United States
More flights under this callsign
Pilot: John A. (19135)
Aircraft: CESSNA 172 SKYHAWK
(C172)
More flights by this aircraft type
Origin: KBUR Bob Hope-Burbank
United States
Destination: KLAS McCarran Intl
United States
More flights between these airports :: More routes between these airports
Route: +VNY3 DAG CRESO4
File this flight plan on PilotEdge
Remarks: Requesting ILS 26R
Altitude:
(Current/Filed)
11,000ft
Speed:
(Current/Filed)
125kts
Departed: 11-Aug-19 12:37 PM
Arrived: 11-Aug-19 02:46 PM
Distance/Time
Traveled:
193nm/2:09
Distance/Time
To Go:
Arrived

Flight Plot

Page will automatically refresh every two minutes.

Flight plan parsing failed; only flown route is shown


Map Options




Map Legend


Flown Route
Filed Route
Departure Airport
Arrival Airport
Navaid (VOR, NDB)
Fix

Horizontal Profiles

Position Reports

Time Latitude Longitude Heading Altitude Ground
Speed
11-Aug-19 12:16 34.196338 -118.367565 358 721ft 0kts
11-Aug-19 12:17 34.196338 -118.367565 358 721ft 0kts
11-Aug-19 12:18 34.196338 -118.367565 358 721ft 0kts
11-Aug-19 12:19 34.196338 -118.367565 358 721ft 0kts
11-Aug-19 12:20 34.196338 -118.367565 358 721ft 0kts
11-Aug-19 12:20 34.196338 -118.367565 358 721ft 0kts
11-Aug-19 12:22 34.196338 -118.367565 358 721ft 0kts
11-Aug-19 12:23 34.196338 -118.367565 358 721ft 0kts
11-Aug-19 12:23 34.196338 -118.367565 358 721ft 0kts
11-Aug-19 12:25 34.196338 -118.367565 358 721ft 0kts
11-Aug-19 12:25 34.196338 -118.367565 358 721ft 0kts
11-Aug-19 12:26 34.196338 -118.367565 358 721ft 0kts
11-Aug-19 12:27 34.196338 -118.367565 358 721ft 0kts
11-Aug-19 12:28 34.196338 -118.367565 358 721ft 0kts
11-Aug-19 12:29 34.196338 -118.367565 358 721ft 0kts
11-Aug-19 12:30 34.196486 -118.367340 82 722ft 9kts
11-Aug-19 12:31 34.196941 -118.366973 276 723ft 13kts
11-Aug-19 12:32 34.197240 -118.369051 357 724ft 0kts
11-Aug-19 12:33 34.197240 -118.369051 357 724ft 0kts
11-Aug-19 12:34 34.197240 -118.369051 357 724ft 0kts
11-Aug-19 12:35 34.197240 -118.369051 357 724ft 0kts
11-Aug-19 12:36 34.197136 -118.356869 99 967ft 76kts
11-Aug-19 12:37 34.183996 -118.352790 224 1806ft 80kts
11-Aug-19 12:38 34.171718 -118.371473 234 2608ft 79kts
11-Aug-19 12:39 34.157311 -118.390244 223 3374ft 80kts
11-Aug-19 12:40 34.156978 -118.415767 285 4028ft 90kts
11-Aug-19 12:41 34.165352 -118.443726 290 4744ft 89kts
11-Aug-19 12:42 34.175848 -118.471150 293 5404ft 90kts
11-Aug-19 12:43 34.185963 -118.498948 302 6001ft 94kts
11-Aug-19 12:44 34.199228 -118.525255 299 6594ft 93kts
11-Aug-19 12:45 34.211760 -118.551863 302 7161ft 92kts
11-Aug-19 12:46 34.228748 -118.573086 342 7716ft 88kts
11-Aug-19 12:47 34.253772 -118.583979 327 7993ft 110kts
11-Aug-19 12:48 34.284230 -118.600560 343 7961ft 125kts
11-Aug-19 12:49 34.313192 -118.599495 59 8160ft 112kts
11-Aug-19 12:50 34.327971 -118.570506 54 8731ft 93kts
11-Aug-19 12:51 34.341427 -118.545403 57 9224ft 86kts
11-Aug-19 12:52 34.353048 -118.520538 59 9688ft 82kts
11-Aug-19 12:53 34.365039 -118.495871 57 10133ft 85kts
11-Aug-19 12:54 34.376892 -118.471276 51 10547ft 87kts
11-Aug-19 12:55 34.391464 -118.447918 51 10961ft 86kts
11-Aug-19 12:56 34.408600 -118.419486 53 10989ft 117kts
11-Aug-19 12:57 34.429351 -118.386090 50 10935ft 125kts
11-Aug-19 12:58 34.449956 -118.351914 55 10930ft 126kts
11-Aug-19 12:59 34.470728 -118.317806 57 10926ft 126kts
11-Aug-19 13:00 34.493521 -118.285856 47 10930ft 126kts
11-Aug-19 13:01 34.514223 -118.251767 59 10953ft 125kts
11-Aug-19 13:02 34.527045 -118.212808 69 10969ft 125kts
11-Aug-19 13:03 34.539066 -118.172944 67 10973ft 126kts
11-Aug-19 13:04 34.551802 -118.133351 68 10981ft 124kts
11-Aug-19 13:05 34.563899 -118.093741 69 10976ft 126kts
11-Aug-19 13:06 34.575275 -118.053598 68 10992ft 125kts
11-Aug-19 13:07 34.587367 -118.013296 70 10923ft 128kts
11-Aug-19 13:08 34.600296 -117.973936 69 10965ft 125kts
11-Aug-19 13:09 34.611870 -117.933863 70 10962ft 125kts
11-Aug-19 13:10 34.623714 -117.894052 73 10967ft 126kts
11-Aug-19 13:11 34.636583 -117.853564 67 10894ft 128kts
11-Aug-19 13:12 34.649039 -117.813258 67 10857ft 128kts
11-Aug-19 13:13 34.661490 -117.773846 70 10967ft 120kts
11-Aug-19 13:14 34.669611 -117.733164 78 10923ft 127kts
11-Aug-19 13:15 34.677986 -117.691135 76 10864ft 128kts
11-Aug-19 13:16 34.685969 -117.649621 68 10858ft 128kts
11-Aug-19 13:17 34.695288 -117.608987 78 10963ft 120kts
11-Aug-19 13:18 34.702378 -117.568349 76 11005ft 122kts
11-Aug-19 13:19 34.709902 -117.527165 75 10981ft 126kts
11-Aug-19 13:20 34.717403 -117.485729 79 10995ft 126kts
11-Aug-19 13:21 34.723854 -117.443767 75 10972ft 127kts
11-Aug-19 13:22 34.733868 -117.402798 75 10993ft 124kts
11-Aug-19 13:23 34.740495 -117.361142 81 10985ft 126kts
11-Aug-19 13:24 34.749929 -117.320468 71 10988ft 126kts
11-Aug-19 13:25 34.758053 -117.279060 79 10964ft 127kts
11-Aug-19 13:26 34.765912 -117.237477 71 10975ft 126kts
11-Aug-19 13:27 34.774031 -117.195924 75 10962ft 126kts
11-Aug-19 13:28 34.782018 -117.154354 76 10959ft 126kts
11-Aug-19 13:29 34.790731 -117.113419 81 10896ft 129kts
11-Aug-19 13:30 34.798001 -117.070806 74 10860ft 128kts
11-Aug-19 13:31 34.806291 -117.029478 80 10909ft 124kts
11-Aug-19 13:32 34.813563 -116.988937 76 10993ft 124kts
11-Aug-19 13:33 34.821351 -116.946739 78 10897ft 128kts
11-Aug-19 13:34 34.831217 -116.905175 71 10853ft 129kts
11-Aug-19 13:35 34.840044 -116.863168 77 10862ft 123kts
11-Aug-19 13:36 34.844634 -116.823082 83 11027ft 118kts
11-Aug-19 13:37 34.853711 -116.783300 59 10969ft 128kts
11-Aug-19 13:38 34.870786 -116.747529 52 11077ft 123kts
11-Aug-19 13:39 34.889683 -116.712484 59 11111ft 124kts
11-Aug-19 13:40 34.907458 -116.674486 62 10980ft 129kts
11-Aug-19 13:41 34.926157 -116.637642 52 10953ft 127kts
11-Aug-19 13:42 34.943462 -116.599838 58 10998ft 117kts
11-Aug-19 13:43 34.960378 -116.564350 57 11033ft 123kts
11-Aug-19 13:44 34.978132 -116.528826 59 11108ft 123kts
11-Aug-19 13:45 34.994015 -116.490468 54 11042ft 126kts
11-Aug-19 13:46 35.015638 -116.455813 66 10868ft 130kts
11-Aug-19 13:47 35.031382 -116.418395 63 10975ft 126kts
11-Aug-19 13:48 35.047957 -116.380831 63 10975ft 126kts
11-Aug-19 13:49 35.064324 -116.342800 60 10954ft 127kts
11-Aug-19 13:50 35.081172 -116.305041 60 10961ft 126kts
11-Aug-19 13:51 35.098003 -116.267422 56 10959ft 126kts
11-Aug-19 13:52 35.115109 -116.230081 60 10948ft 127kts
11-Aug-19 13:53 35.131974 -116.192558 62 10958ft 126kts
11-Aug-19 13:54 35.148559 -116.154789 61 10961ft 126kts
11-Aug-19 13:55 35.165359 -116.116941 62 10962ft 126kts
11-Aug-19 13:56 35.182675 -116.079872 56 10967ft 126kts
11-Aug-19 13:57 35.199179 -116.041956 64 10968ft 126kts
11-Aug-19 13:58 35.215007 -116.003654 63 10971ft 126kts
11-Aug-19 13:59 35.231165 -115.965399 61 10969ft 126kts
11-Aug-19 14:00 35.246580 -115.926979 74 10974ft 126kts
11-Aug-19 14:01 35.265615 -115.890676 60 10952ft 126kts
11-Aug-19 14:02 35.281178 -115.852315 62 10951ft 127kts
11-Aug-19 14:03 35.296112 -115.813519 62 10975ft 125kts
11-Aug-19 14:04 35.316656 -115.779009 44 10972ft 126kts
11-Aug-19 14:05 35.339415 -115.746523 50 10983ft 126kts
11-Aug-19 14:06 35.362054 -115.714130 50 11011ft 126kts
11-Aug-19 14:07 35.386493 -115.683157 41 10993ft 127kts
11-Aug-19 14:08 35.410233 -115.651297 51 10991ft 126kts
11-Aug-19 14:09 35.433602 -115.619053 49 10986ft 126kts
11-Aug-19 14:10 35.458396 -115.588395 47 10982ft 126kts
11-Aug-19 14:11 35.482307 -115.556660 44 10969ft 126kts
11-Aug-19 14:12 35.504624 -115.524201 44 11051ft 123kts
11-Aug-19 14:13 35.528540 -115.494041 47 11121ft 123kts
11-Aug-19 14:14 35.551163 -115.462654 45 10700ft 123kts
11-Aug-19 14:15 35.573913 -115.431278 47 10258ft 122kts
11-Aug-19 14:16 35.595746 -115.400526 46 10135ft 118kts
11-Aug-19 14:18 35.617069 -115.371466 49 10066ft 113kts
11-Aug-19 14:19 35.637936 -115.343613 43 10142ft 111kts
11-Aug-19 14:20 35.660204 -115.317318 44 10192ft 111kts
11-Aug-19 14:21 35.681813 -115.290059 50 9751ft 113kts
11-Aug-19 14:22 35.703462 -115.261197 48 9060ft 117kts
11-Aug-19 14:23 35.723476 -115.230866 49 8475ft 113kts
11-Aug-19 14:24 35.743395 -115.201387 49 8031ft 110kts
11-Aug-19 14:25 35.763377 -115.175815 45 8018ft 106kts
11-Aug-19 14:26 35.784246 -115.148994 48 8075ft 111kts
11-Aug-19 14:27 35.803112 -115.119202 57 7763ft 114kts
11-Aug-19 14:28 35.827571 -115.102684 21 8085ft 110kts
11-Aug-19 14:29 35.855974 -115.087618 26 7732ft 126kts
11-Aug-19 14:30 35.886562 -115.074593 14 7223ft 129kts
11-Aug-19 14:31 35.918816 -115.060903 20 6696ft 118kts
11-Aug-19 14:32 35.950271 -115.050274 16 6143ft 122kts
11-Aug-19 14:33 35.981401 -115.035211 26 5618ft 118kts
11-Aug-19 14:34 36.009758 -115.021083 16 5589ft 107kts
11-Aug-19 14:35 36.037417 -115.006909 17 5628ft 111kts
11-Aug-19 14:36 36.065204 -114.990124 29 5672ft 109kts
11-Aug-19 14:36 36.088578 -114.985153 11 6163ft 107kts
11-Aug-19 14:38 36.125574 -114.975520 325 6205ft 117kts
11-Aug-19 14:39 36.139140 -115.011541 296 6002ft 109kts
11-Aug-19 14:40 36.154655 -115.045101 295 4888ft 100kts
11-Aug-19 14:40 36.165182 -115.073949 275 3640ft 101kts
11-Aug-19 14:41 36.156202 -115.105776 235 2920ft 80kts
11-Aug-19 14:43 36.142862 -115.131889 218 3091ft 87kts
11-Aug-19 14:43 36.125652 -115.144247 200 2982ft 82kts
11-Aug-19 14:44 36.106212 -115.153015 202 2423ft 74kts
11-Aug-19 14:45 36.094022 -115.160216 275 2105ft 1kts
11-Aug-19 14:46 36.094328 -115.161186 293 2107ft 11kts
11-Aug-19 14:47 36.092360 -115.163721 213 2120ft 4kts
11-Aug-19 14:48 36.091870 -115.164277 238 2123ft 0kts
11-Aug-19 14:49 36.091870 -115.164277 238 2123ft 0kts
11-Aug-19 14:50 36.091870 -115.164277 238 2123ft 0kts
11-Aug-19 14:51 36.091870 -115.164277 238 2123ft 0kts
11-Aug-19 14:52 36.091870 -115.164277 238 2123ft 0kts
11-Aug-19 14:53 36.091870 -115.164277 238 2123ft 0kts
11-Aug-19 14:54 36.091870 -115.164277 238 2123ft 0kts
11-Aug-19 14:55 36.091870 -115.164277 238 2123ft 0kts

Navigation Log

Ident Type
Flight plan parsing failed, navigation log unavailable